sensor_id;sensor_type;location;lat;lon;timestamp;P1;durP1;ratioP1;P2;durP2;ratioP2
34711;SDS011;20941;42.408;25.634;2023-03-25T00:02:03;19.60;;;12.55;;
34711;SDS011;20941;42.408;25.634;2023-03-25T00:04:29;16.23;;;11.75;;
34711;SDS011;20941;42.408;25.634;2023-03-25T00:06:55;22.63;;;13.20;;
34711;SDS011;20941;42.408;25.634;2023-03-25T00:09:20;20.08;;;12.23;;
34711;SDS011;20941;42.408;25.634;2023-03-25T00:11:48;18.58;;;11.82;;
34711;SDS011;20941;42.408;25.634;2023-03-25T00:14:14;28.88;;;15.38;;
34711;SDS011;20941;42.408;25.634;2023-03-25T00:16:41;27.15;;;14.80;;
34711;SDS011;20941;42.408;25.634;2023-03-25T00:19:06;23.40;;;13.85;;
34711;SDS011;20941;42.408;25.634;2023-03-25T00:21:34;22.92;;;13.77;;
34711;SDS011;20941;42.408;25.634;2023-03-25T00:24:00;20.48;;;14.30;;
34711;SDS011;20941;42.408;25.634;2023-03-25T00:26:26;25.80;;;15.70;;
34711;SDS011;20941;42.408;25.634;2023-03-25T00:28:54;28.85;;;16.00;;
34711;SDS011;20941;42.408;25.634;2023-03-25T00:31:19;21.13;;;12.55;;
34711;SDS011;20941;42.408;25.634;2023-03-25T00:33:45;21.73;;;12.95;;
34711;SDS011;20941;42.408;25.634;2023-03-25T00:36:10;20.67;;;11.45;;
34711;SDS011;20941;42.408;25.634;2023-03-25T00:38:37;17.75;;;11.85;;
34711;SDS011;20941;42.408;25.634;2023-03-25T00:41:21;32.67;;;16.77;;
34711;SDS011;20941;42.408;25.634;2023-03-25T00:43:55;28.70;;;14.00;;
34711;SDS011;20941;42.408;25.634;2023-03-25T00:46:22;21.48;;;12.80;;
34711;SDS011;20941;42.408;25.634;2023-03-25T00:48:48;23.00;;;12.57;;
34711;SDS011;20941;42.408;25.634;2023-03-25T00:51:13;22.90;;;16.33;;
34711;SDS011;20941;42.408;25.634;2023-03-25T00:53:43;26.38;;;14.18;;
34711;SDS011;20941;42.408;25.634;2023-03-25T00:56:09;26.50;;;13.52;;
34711;SDS011;20941;42.408;25.634;2023-03-25T00:58:34;46.67;;;22.40;;
34711;SDS011;20941;42.408;25.634;2023-03-25T01:01:00;35.97;;;14.50;;
34711;SDS011;20941;42.408;25.634;2023-03-25T01:03:27;23.02;;;11.63;;
34711;SDS011;20941;42.408;25.634;2023-03-25T01:05:55;24.73;;;11.82;;
34711;SDS011;20941;42.408;25.634;2023-03-25T01:08:22;20.73;;;10.38;;
34711;SDS011;20941;42.408;25.634;2023-03-25T01:10:52;19.02;;;10.45;;
34711;SDS011;20941;42.408;25.634;2023-03-25T01:13:18;12.57;;;8.13;;
34711;SDS011;20941;42.408;25.634;2023-03-25T01:15:44;22.35;;;10.93;;
34711;SDS011;20941;42.408;25.634;2023-03-25T01:18:09;24.42;;;13.90;;
34711;SDS011;20941;42.408;25.634;2023-03-25T01:20:35;18.55;;;12.10;;
34711;SDS011;20941;42.408;25.634;2023-03-25T01:23:00;15.32;;;8.73;;
34711;SDS011;20941;42.408;25.634;2023-03-25T01:25:26;19.73;;;10.02;;
34711;SDS011;20941;42.408;25.634;2023-03-25T01:27:51;15.70;;;9.30;;
34711;SDS011;20941;42.408;25.634;2023-03-25T01:30:16;19.65;;;9.85;;
34711;SDS011;20941;42.408;25.634;2023-03-25T01:32:42;18.85;;;9.23;;
34711;SDS011;20941;42.408;25.634;2023-03-25T01:35:07;16.45;;;8.88;;
34711;SDS011;20941;42.408;25.634;2023-03-25T01:37:34;14.85;;;9.55;;
34711;SDS011;20941;42.408;25.634;2023-03-25T01:40:03;19.75;;;9.18;;
34711;SDS011;20941;42.408;25.634;2023-03-25T01:42:33;15.90;;;9.98;;
34711;SDS011;20941;42.408;25.634;2023-03-25T01:45:19;23.05;;;10.73;;
34711;SDS011;20941;42.408;25.634;2023-03-25T01:50:09;13.73;;;8.67;;
34711;SDS011;20941;42.408;25.634;2023-03-25T01:52:40;16.45;;;9.00;;
34711;SDS011;20941;42.408;25.634;2023-03-25T01:55:06;12.13;;;8.75;;
34711;SDS011;20941;42.408;25.634;2023-03-25T01:57:31;19.73;;;9.50;;
34711;SDS011;20941;42.408;25.634;2023-03-25T01:59:57;12.65;;;8.70;;
34711;SDS011;20941;42.408;25.634;2023-03-25T02:02:22;15.73;;;9.15;;
34711;SDS011;20941;42.408;25.634;2023-03-25T02:05:04;15.25;;;9.07;;
34711;SDS011;20941;42.408;25.634;2023-03-25T02:07:34;16.03;;;10.13;;
34711;SDS011;20941;42.408;25.634;2023-03-25T02:10:05;17.85;;;9.80;;
34711;SDS011;20941;42.408;25.634;2023-03-25T02:12:31;20.13;;;11.30;;
34711;SDS011;20941;42.408;25.634;2023-03-25T02:14:57;54.83;;;25.95;;
34711;SDS011;20941;42.408;25.634;2023-03-25T02:38:47;23.85;;;13.30;;
34711;SDS011;20941;42.408;25.634;2023-03-25T02:43:52;26.20;;;13.68;;
34711;SDS011;20941;42.408;25.634;2023-03-25T02:46:20;30.83;;;14.30;;
34711;SDS011;20941;42.408;25.634;2023-03-25T02:51:23;26.90;;;13.75;;
34711;SDS011;20941;42.408;25.634;2023-03-25T02:53:49;23.02;;;12.95;;
34711;SDS011;20941;42.408;25.634;2023-03-25T02:56:16;23.52;;;13.32;;
34711;SDS011;20941;42.408;25.634;2023-03-25T02:58:46;21.45;;;13.18;;
34711;SDS011;20941;42.408;25.634;2023-03-25T03:01:13;33.25;;;15.70;;
34711;SDS011;20941;42.408;25.634;2023-03-25T03:03:39;43.38;;;17.20;;
34711;SDS011;20941;42.408;25.634;2023-03-25T03:06:04;29.27;;;14.52;;
34711;SDS011;20941;42.408;25.634;2023-03-25T03:21:18;26.95;;;13.63;;
34711;SDS011;20941;42.408;25.634;2023-03-25T03:23:57;31.02;;;13.18;;
34711;SDS011;20941;42.408;25.634;2023-03-25T03:29:17;27.13;;;13.85;;
34711;SDS011;20941;42.408;25.634;2023-03-25T03:31:52;31.63;;;14.25;;
34711;SDS011;20941;42.408;25.634;2023-03-25T03:36:44;26.70;;;13.68;;
34711;SDS011;20941;42.408;25.634;2023-03-25T03:39:32;26.38;;;14.10;;
34711;SDS011;20941;42.408;25.634;2023-03-25T03:41:59;28.58;;;14.25;;
34711;SDS011;20941;42.408;25.634;2023-03-25T03:44:28;28.65;;;13.70;;
34711;SDS011;20941;42.408;25.634;2023-03-25T03:46:58;28.58;;;14.20;;
34711;SDS011;20941;42.408;25.634;2023-03-25T03:49:27;37.88;;;14.48;;
34711;SDS011;20941;42.408;25.634;2023-03-25T03:51:55;26.67;;;13.38;;
34711;SDS011;20941;42.408;25.634;2023-03-25T03:54:23;30.23;;;13.23;;
34711;SDS011;20941;42.408;25.634;2023-03-25T03:56:54;29.15;;;14.35;;
34711;SDS011;20941;42.408;25.634;2023-03-25T04:00:06;28.77;;;13.27;;
34711;SDS011;20941;42.408;25.634;2023-03-25T04:02:11;33.10;;;14.00;;
34711;SDS011;20941;42.408;25.634;2023-03-25T04:04:39;28.50;;;13.93;;
34711;SDS011;20941;42.408;25.634;2023-03-25T04:07:40;32.60;;;14.13;;
34711;SDS011;20941;42.408;25.634;2023-03-25T04:12:53;26.63;;;14.05;;
34711;SDS011;20941;42.408;25.634;2023-03-25T04:15:19;24.90;;;13.73;;
34711;SDS011;20941;42.408;25.634;2023-03-25T04:17:45;33.75;;;15.07;;
34711;SDS011;20941;42.408;25.634;2023-03-25T04:20:15;31.23;;;14.88;;
34711;SDS011;20941;42.408;25.634;2023-03-25T04:22:47;34.67;;;16.13;;
34711;SDS011;20941;42.408;25.634;2023-03-25T04:25:13;26.67;;;16.52;;
34711;SDS011;20941;42.408;25.634;2023-03-25T04:27:39;34.47;;;16.45;;
34711;SDS011;20941;42.408;25.634;2023-03-25T04:30:04;38.95;;;18.23;;
34711;SDS011;20941;42.408;25.634;2023-03-25T04:32:30;44.50;;;17.90;;
34711;SDS011;20941;42.408;25.634;2023-03-25T04:34:55;31.63;;;16.52;;
34711;SDS011;20941;42.408;25.634;2023-03-25T04:37:22;34.60;;;20.88;;
34711;SDS011;20941;42.408;25.634;2023-03-25T04:39:49;49.28;;;24.10;;
34711;SDS011;20941;42.408;25.634;2023-03-25T04:42:14;68.97;;;31.15;;
34711;SDS011;20941;42.408;25.634;2023-03-25T04:44:41;53.58;;;25.35;;
34711;SDS011;20941;42.408;25.634;2023-03-25T04:47:11;79.97;;;25.25;;
34711;SDS011;20941;42.408;25.634;2023-03-25T04:49:38;44.20;;;20.05;;
34711;SDS011;20941;42.408;25.634;2023-03-25T04:52:05;51.40;;;20.13;;
34711;SDS011;20941;42.408;25.634;2023-03-25T04:54:33;47.67;;;19.55;;
34711;SDS011;20941;42.408;25.634;2023-03-25T04:56:58;42.58;;;19.67;;
34711;SDS011;20941;42.408;25.634;2023-03-25T04:59:24;46.65;;;18.45;;
34711;SDS011;20941;42.408;25.634;2023-03-25T05:01:51;41.58;;;18.27;;
34711;SDS011;20941;42.408;25.634;2023-03-25T05:04:16;43.45;;;19.17;;
34711;SDS011;20941;42.408;25.634;2023-03-25T05:06:43;38.90;;;18.88;;
34711;SDS011;20941;42.408;25.634;2023-03-25T05:09:10;43.60;;;19.05;;
34711;SDS011;20941;42.408;25.634;2023-03-25T05:11:36;34.47;;;18.27;;
34711;SDS011;20941;42.408;25.634;2023-03-25T05:14:03;34.08;;;19.17;;
34711;SDS011;20941;42.408;25.634;2023-03-25T05:16:29;29.20;;;18.08;;
34711;SDS011;20941;42.408;25.634;2023-03-25T05:18:54;33.85;;;17.88;;
34711;SDS011;20941;42.408;25.634;2023-03-25T05:21:20;31.95;;;17.27;;
34711;SDS011;20941;42.408;25.634;2023-03-25T05:23:45;33.65;;;17.00;;
34711;SDS011;20941;42.408;25.634;2023-03-25T05:26:11;34.38;;;17.45;;
34711;SDS011;20941;42.408;25.634;2023-03-25T05:28:37;31.02;;;16.48;;
34711;SDS011;20941;42.408;25.634;2023-03-25T05:31:03;38.08;;;17.42;;
34711;SDS011;20941;42.408;25.634;2023-03-25T05:33:33;30.42;;;15.82;;
34711;SDS011;20941;42.408;25.634;2023-03-25T05:35:58;30.52;;;14.93;;
34711;SDS011;20941;42.408;25.634;2023-03-25T05:38:23;39.75;;;18.55;;
34711;SDS011;20941;42.408;25.634;2023-03-25T05:40:49;33.25;;;18.73;;
34711;SDS011;20941;42.408;25.634;2023-03-25T05:43:14;33.10;;;17.70;;
34711;SDS011;20941;42.408;25.634;2023-03-25T05:45:40;35.45;;;18.13;;
34711;SDS011;20941;42.408;25.634;2023-03-25T05:48:06;39.50;;;18.15;;
34711;SDS011;20941;42.408;25.634;2023-03-25T05:50:32;30.77;;;16.15;;
34711;SDS011;20941;42.408;25.634;2023-03-25T05:52:58;29.17;;;15.18;;
34711;SDS011;20941;42.408;25.634;2023-03-25T05:55:24;24.10;;;14.45;;
34711;SDS011;20941;42.408;25.634;2023-03-25T05:57:49;28.90;;;15.30;;
34711;SDS011;20941;42.408;25.634;2023-03-25T06:00:15;22.05;;;14.45;;
34711;SDS011;20941;42.408;25.634;2023-03-25T06:02:43;27.38;;;14.65;;
34711;SDS011;20941;42.408;25.634;2023-03-25T06:05:09;33.08;;;14.07;;
34711;SDS011;20941;42.408;25.634;2023-03-25T06:07:35;31.90;;;13.75;;
34711;SDS011;20941;42.408;25.634;2023-03-25T06:10:02;29.05;;;12.52;;
34711;SDS011;20941;42.408;25.634;2023-03-25T06:12:27;27.30;;;11.77;;
34711;SDS011;20941;42.408;25.634;2023-03-25T06:14:56;22.52;;;12.70;;
34711;SDS011;20941;42.408;25.634;2023-03-25T06:17:22;24.73;;;12.52;;
34711;SDS011;20941;42.408;25.634;2023-03-25T06:19:48;22.48;;;11.75;;
34711;SDS011;20941;42.408;25.634;2023-03-25T06:22:13;23.88;;;11.85;;
34711;SDS011;20941;42.408;25.634;2023-03-25T06:24:39;29.20;;;13.85;;
34711;SDS011;20941;42.408;25.634;2023-03-25T06:27:06;21.75;;;12.07;;
34711;SDS011;20941;42.408;25.634;2023-03-25T06:29:35;24.98;;;12.88;;
34711;SDS011;20941;42.408;25.634;2023-03-25T06:32:05;18.42;;;11.82;;
34711;SDS011;20941;42.408;25.634;2023-03-25T06:34:31;18.15;;;11.75;;
34711;SDS011;20941;42.408;25.634;2023-03-25T06:37:02;21.08;;;12.63;;
34711;SDS011;20941;42.408;25.634;2023-03-25T06:39:28;21.60;;;12.40;;
34711;SDS011;20941;42.408;25.634;2023-03-25T06:41:58;26.50;;;12.57;;
34711;SDS011;20941;42.408;25.634;2023-03-25T06:44:23;33.90;;;13.02;;
34711;SDS011;20941;42.408;25.634;2023-03-25T06:46:48;16.55;;;10.68;;
34711;SDS011;20941;42.408;25.634;2023-03-25T06:49:14;17.75;;;10.20;;
34711;SDS011;20941;42.408;25.634;2023-03-25T06:51:39;23.67;;;10.82;;
34711;SDS011;20941;42.408;25.634;2023-03-25T06:54:04;24.02;;;11.48;;
34711;SDS011;20941;42.408;25.634;2023-03-25T06:56:30;23.52;;;11.85;;
34711;SDS011;20941;42.408;25.634;2023-03-25T06:58:55;21.25;;;11.90;;
34711;SDS011;20941;42.408;25.634;2023-03-25T07:01:21;26.33;;;12.55;;
34711;SDS011;20941;42.408;25.634;2023-03-25T07:03:46;25.40;;;13.25;;
34711;SDS011;20941;42.408;25.634;2023-03-25T07:06:15;31.20;;;13.48;;
34711;SDS011;20941;42.408;25.634;2023-03-25T07:08:41;28.38;;;15.57;;
34711;SDS011;20941;42.408;25.634;2023-03-25T07:11:07;30.20;;;18.27;;
34711;SDS011;20941;42.408;25.634;2023-03-25T07:13:33;31.23;;;15.90;;
34711;SDS011;20941;42.408;25.634;2023-03-25T07:15:58;30.25;;;17.83;;
34711;SDS011;20941;42.408;25.634;2023-03-25T07:18:24;31.45;;;18.20;;
34711;SDS011;20941;42.408;25.634;2023-03-25T07:20:49;26.88;;;15.57;;
34711;SDS011;20941;42.408;25.634;2023-03-25T07:23:15;43.55;;;17.80;;
34711;SDS011;20941;42.408;25.634;2023-03-25T07:25:40;26.02;;;14.57;;
34711;SDS011;20941;42.408;25.634;2023-03-25T07:28:06;31.45;;;13.95;;
34711;SDS011;20941;42.408;25.634;2023-03-25T07:30:31;27.58;;;14.00;;
34711;SDS011;20941;42.408;25.634;2023-03-25T07:32:56;24.55;;;14.23;;
34711;SDS011;20941;42.408;25.634;2023-03-25T07:35:22;26.83;;;13.40;;
34711;SDS011;20941;42.408;25.634;2023-03-25T07:37:47;25.48;;;13.10;;
34711;SDS011;20941;42.408;25.634;2023-03-25T07:40:12;28.27;;;13.68;;
34711;SDS011;20941;42.408;25.634;2023-03-25T07:42:38;23.33;;;13.10;;
34711;SDS011;20941;42.408;25.634;2023-03-25T07:45:03;29.45;;;13.88;;
34711;SDS011;20941;42.408;25.634;2023-03-25T07:47:29;29.90;;;13.05;;
34711;SDS011;20941;42.408;25.634;2023-03-25T07:49:54;24.33;;;12.93;;
34711;SDS011;20941;42.408;25.634;2023-03-25T07:52:20;25.30;;;13.27;;
34711;SDS011;20941;42.408;25.634;2023-03-25T07:54:45;22.58;;;12.45;;
34711;SDS011;20941;42.408;25.634;2023-03-25T07:57:10;24.80;;;12.73;;
34711;SDS011;20941;42.408;25.634;2023-03-25T07:59:37;22.65;;;12.90;;
34711;SDS011;20941;42.408;25.634;2023-03-25T08:02:02;23.48;;;12.95;;
34711;SDS011;20941;42.408;25.634;2023-03-25T08:04:27;25.30;;;13.30;;
34711;SDS011;20941;42.408;25.634;2023-03-25T08:06:53;24.85;;;13.57;;
34711;SDS011;20941;42.408;25.634;2023-03-25T08:09:18;24.60;;;13.60;;
34711;SDS011;20941;42.408;25.634;2023-03-25T08:11:43;26.13;;;13.75;;
34711;SDS011;20941;42.408;25.634;2023-03-25T08:14:10;25.27;;;13.40;;
34711;SDS011;20941;42.408;25.634;2023-03-25T08:16:35;22.00;;;12.65;;
34711;SDS011;20941;42.408;25.634;2023-03-25T08:19:00;23.83;;;12.38;;
34711;SDS011;20941;42.408;25.634;2023-03-25T08:21:26;19.30;;;12.43;;
34711;SDS011;20941;42.408;25.634;2023-03-25T08:23:55;29.40;;;13.35;;
34711;SDS011;20941;42.408;25.634;2023-03-25T08:26:28;20.63;;;11.57;;
34711;SDS011;20941;42.408;25.634;2023-03-25T08:28:55;24.50;;;12.60;;
34711;SDS011;20941;42.408;25.634;2023-03-25T08:31:22;21.40;;;11.88;;
34711;SDS011;20941;42.408;25.634;2023-03-25T08:33:47;24.00;;;11.40;;
34711;SDS011;20941;42.408;25.634;2023-03-25T08:36:13;18.90;;;11.20;;
34711;SDS011;20941;42.408;25.634;2023-03-25T08:38:44;20.02;;;10.70;;
34711;SDS011;20941;42.408;25.634;2023-03-25T08:41:09;18.65;;;11.68;;
34711;SDS011;20941;42.408;25.634;2023-03-25T08:43:35;21.88;;;13.00;;
34711;SDS011;20941;42.408;25.634;2023-03-25T08:46:00;20.98;;;13.30;;
34711;SDS011;20941;42.408;25.634;2023-03-25T08:48:26;26.90;;;14.93;;
34711;SDS011;20941;42.408;25.634;2023-03-25T08:50:51;24.73;;;13.93;;
34711;SDS011;20941;42.408;25.634;2023-03-25T08:53:17;20.90;;;13.10;;
34711;SDS011;20941;42.408;25.634;2023-03-25T08:55:42;27.90;;;14.07;;
34711;SDS011;20941;42.408;25.634;2023-03-25T08:58:08;29.13;;;14.25;;
34711;SDS011;20941;42.408;25.634;2023-03-25T09:00:34;25.35;;;14.00;;
34711;SDS011;20941;42.408;25.634;2023-03-25T09:03:00;22.70;;;13.95;;
34711;SDS011;20941;42.408;25.634;2023-03-25T09:05:25;20.88;;;13.73;;
34711;SDS011;20941;42.408;25.634;2023-03-25T09:07:51;23.42;;;13.95;;
34711;SDS011;20941;42.408;25.634;2023-03-25T09:10:16;32.78;;;14.23;;
34711;SDS011;20941;42.408;25.634;2023-03-25T09:12:42;24.17;;;14.05;;
34711;SDS011;20941;42.408;25.634;2023-03-25T09:15:08;25.13;;;14.35;;
34711;SDS011;20941;42.408;25.634;2023-03-25T09:17:34;19.73;;;12.85;;
34711;SDS011;20941;42.408;25.634;2023-03-25T09:19:59;22.05;;;14.05;;
34711;SDS011;20941;42.408;25.634;2023-03-25T09:22:24;23.02;;;13.85;;
34711;SDS011;20941;42.408;25.634;2023-03-25T09:24:50;27.05;;;14.80;;
34711;SDS011;20941;42.408;25.634;2023-03-25T09:27:15;29.92;;;14.40;;
34711;SDS011;20941;42.408;25.634;2023-03-25T09:29:40;24.40;;;13.55;;
34711;SDS011;20941;42.408;25.634;2023-03-25T09:32:06;20.73;;;13.32;;
34711;SDS011;20941;42.408;25.634;2023-03-25T09:34:31;22.38;;;14.02;;
34711;SDS011;20941;42.408;25.634;2023-03-25T09:36:56;24.98;;;13.32;;
34711;SDS011;20941;42.408;25.634;2023-03-25T09:39:22;23.25;;;13.30;;
34711;SDS011;20941;42.408;25.634;2023-03-25T09:41:56;25.95;;;13.82;;
34711;SDS011;20941;42.408;25.634;2023-03-25T09:46:51;22.73;;;14.27;;
34711;SDS011;20941;42.408;25.634;2023-03-25T09:49:21;24.85;;;13.93;;
34711;SDS011;20941;42.408;25.634;2023-03-25T09:51:47;19.90;;;14.05;;
34711;SDS011;20941;42.408;25.634;2023-03-25T09:54:21;19.70;;;13.20;;
34711;SDS011;20941;42.408;25.634;2023-03-25T09:56:48;20.33;;;13.38;;
34711;SDS011;20941;42.408;25.634;2023-03-25T09:59:21;21.10;;;12.30;;
34711;SDS011;20941;42.408;25.634;2023-03-25T10:20:57;15.38;;;10.00;;
34711;SDS011;20941;42.408;25.634;2023-03-25T10:23:29;16.80;;;10.88;;
34711;SDS011;20941;42.408;25.634;2023-03-25T10:25:59;19.45;;;10.73;;
34711;SDS011;20941;42.408;25.634;2023-03-25T10:28:29;20.02;;;10.68;;
34711;SDS011;20941;42.408;25.634;2023-03-25T10:30:57;12.00;;;7.60;;
34711;SDS011;20941;42.408;25.634;2023-03-25T10:35:52;11.82;;;8.38;;
34711;SDS011;20941;42.408;25.634;2023-03-25T10:38:19;17.92;;;8.15;;
34711;SDS011;20941;42.408;25.634;2023-03-25T10:40:46;13.65;;;8.10;;
34711;SDS011;20941;42.408;25.634;2023-03-25T10:43:27;12.93;;;8.02;;
34711;SDS011;20941;42.408;25.634;2023-03-25T10:46:13;13.43;;;8.45;;
34711;SDS011;20941;42.408;25.634;2023-03-25T10:48:40;12.68;;;7.68;;
34711;SDS011;20941;42.408;25.634;2023-03-25T10:51:11;10.15;;;7.50;;
34711;SDS011;20941;42.408;25.634;2023-03-25T10:53:37;10.50;;;8.13;;
34711;SDS011;20941;42.408;25.634;2023-03-25T10:56:06;13.25;;;7.97;;
34711;SDS011;20941;42.408;25.634;2023-03-25T10:58:32;23.75;;;9.23;;
34711;SDS011;20941;42.408;25.634;2023-03-25T11:00:59;12.95;;;8.77;;
34711;SDS011;20941;42.408;25.634;2023-03-25T11:03:27;12.32;;;8.45;;
34711;SDS011;20941;42.408;25.634;2023-03-25T11:05:54;19.33;;;10.57;;
34711;SDS011;20941;42.408;25.634;2023-03-25T11:08:20;20.23;;;8.88;;
34711;SDS011;20941;42.408;25.634;2023-03-25T11:10:47;19.42;;;9.63;;
34711;SDS011;20941;42.408;25.634;2023-03-25T11:13:15;24.58;;;13.90;;
34711;SDS011;20941;42.408;25.634;2023-03-25T11:15:46;32.60;;;15.52;;
34711;SDS011;20941;42.408;25.634;2023-03-25T11:18:25;25.70;;;13.93;;
34711;SDS011;20941;42.408;25.634;2023-03-25T11:20:52;28.65;;;15.63;;
34711;SDS011;20941;42.408;25.634;2023-03-25T11:25:43;36.95;;;16.05;;
34711;SDS011;20941;42.408;25.634;2023-03-25T11:28:19;27.63;;;16.00;;
34711;SDS011;20941;42.408;25.634;2023-03-25T11:33:31;32.53;;;16.08;;
34711;SDS011;20941;42.408;25.634;2023-03-25T11:35:57;27.13;;;13.90;;
34711;SDS011;20941;42.408;25.634;2023-03-25T11:38:34;19.45;;;11.73;;
34711;SDS011;20941;42.408;25.634;2023-03-25T11:41:01;22.42;;;12.02;;
34711;SDS011;20941;42.408;25.634;2023-03-25T11:43:30;19.58;;;10.70;;
34711;SDS011;20941;42.408;25.634;2023-03-25T11:45:57;16.45;;;8.90;;
34711;SDS011;20941;42.408;25.634;2023-03-25T11:48:31;18.13;;;8.30;;
34711;SDS011;20941;42.408;25.634;2023-03-25T11:51:01;13.50;;;8.82;;
34711;SDS011;20941;42.408;25.634;2023-03-25T11:53:42;18.55;;;9.23;;
34711;SDS011;20941;42.408;25.634;2023-03-25T11:56:11;12.02;;;7.32;;
34711;SDS011;20941;42.408;25.634;2023-03-25T11:58:39;19.80;;;7.70;;
34711;SDS011;20941;42.408;25.634;2023-03-25T12:01:06;13.00;;;7.53;;
34711;SDS011;20941;42.408;25.634;2023-03-25T12:03:35;16.15;;;8.45;;
34711;SDS011;20941;42.408;25.634;2023-03-25T12:06:05;15.43;;;9.18;;
34711;SDS011;20941;42.408;25.634;2023-03-25T12:08:41;13.05;;;8.00;;
34711;SDS011;20941;42.408;25.634;2023-03-25T12:11:15;11.10;;;7.53;;
34711;SDS011;20941;42.408;25.634;2023-03-25T12:18:56;15.23;;;7.25;;
34711;SDS011;20941;42.408;25.634;2023-03-25T12:26:26;12.68;;;7.38;;
34711;SDS011;20941;42.408;25.634;2023-03-25T12:29:09;14.80;;;6.63;;
34711;SDS011;20941;42.408;25.634;2023-03-25T12:45:26;7.60;;;5.22;;
34711;SDS011;20941;42.408;25.634;2023-03-25T12:53:26;8.77;;;5.50;;
34711;SDS011;20941;42.408;25.634;2023-03-25T12:56:05;9.98;;;5.65;;
34711;SDS011;20941;42.408;25.634;2023-03-25T13:01:03;7.97;;;5.40;;
34711;SDS011;20941;42.408;25.634;2023-03-25T13:06:27;6.22;;;5.63;;
34711;SDS011;20941;42.408;25.634;2023-03-25T13:11:21;7.07;;;5.40;;
34711;SDS011;20941;42.408;25.634;2023-03-25T13:13:48;6.15;;;5.38;;
34711;SDS011;20941;42.408;25.634;2023-03-25T13:16:16;9.10;;;5.13;;
34711;SDS011;20941;42.408;25.634;2023-03-25T13:18:46;8.40;;;5.43;;
34711;SDS011;20941;42.408;25.634;2023-03-25T13:21:15;7.60;;;5.30;;
34711;SDS011;20941;42.408;25.634;2023-03-25T13:23:42;8.07;;;4.88;;
34711;SDS011;20941;42.408;25.634;2023-03-25T13:26:10;6.82;;;5.45;;
34711;SDS011;20941;42.408;25.634;2023-03-25T13:28:40;7.05;;;5.05;;
34711;SDS011;20941;42.408;25.634;2023-03-25T13:31:09;5.55;;;4.97;;
34711;SDS011;20941;42.408;25.634;2023-03-25T13:33:37;7.30;;;5.18;;
34711;SDS011;20941;42.408;25.634;2023-03-25T13:41:19;10.75;;;5.50;;
34711;SDS011;20941;42.408;25.634;2023-03-25T13:43:54;6.05;;;5.05;;
34711;SDS011;20941;42.408;25.634;2023-03-25T13:46:23;7.43;;;4.65;;
34711;SDS011;20941;42.408;25.634;2023-03-25T13:49:02;6.72;;;5.05;;
34711;SDS011;20941;42.408;25.634;2023-03-25T13:51:28;8.63;;;4.70;;
34711;SDS011;20941;42.408;25.634;2023-03-25T13:54:05;8.45;;;5.07;;
34711;SDS011;20941;42.408;25.634;2023-03-25T13:59:27;5.05;;;4.30;;
34711;SDS011;20941;42.408;25.634;2023-03-25T14:10:08;5.53;;;4.47;;
34711;SDS011;20941;42.408;25.634;2023-03-25T14:12:39;6.40;;;4.28;;
34711;SDS011;20941;42.408;25.634;2023-03-25T14:15:18;7.95;;;4.47;;
34711;SDS011;20941;42.408;25.634;2023-03-25T14:17:44;7.68;;;4.85;;
34711;SDS011;20941;42.408;25.634;2023-03-25T14:20:11;6.28;;;4.60;;
34711;SDS011;20941;42.408;25.634;2023-03-25T14:22:41;6.43;;;4.70;;
34711;SDS011;20941;42.408;25.634;2023-03-25T14:27:51;4.93;;;4.43;;
34711;SDS011;20941;42.408;25.634;2023-03-25T14:32:42;15.13;;;5.15;;
34711;SDS011;20941;42.408;25.634;2023-03-25T14:37:52;6.47;;;4.80;;
34711;SDS011;20941;42.408;25.634;2023-03-25T14:43:01;7.95;;;4.30;;
34711;SDS011;20941;42.408;25.634;2023-03-25T14:47:56;6.40;;;5.22;;
34711;SDS011;20941;42.408;25.634;2023-03-25T14:55:25;5.00;;;4.50;;
34711;SDS011;20941;42.408;25.634;2023-03-25T14:57:56;8.15;;;4.45;;
34711;SDS011;20941;42.408;25.634;2023-03-25T15:00:23;5.35;;;4.57;;
34711;SDS011;20941;42.408;25.634;2023-03-25T15:02:53;4.82;;;4.32;;
34711;SDS011;20941;42.408;25.634;2023-03-25T15:05:23;11.25;;;4.65;;
34711;SDS011;20941;42.408;25.634;2023-03-25T15:07:52;11.52;;;4.80;;
34711;SDS011;20941;42.408;25.634;2023-03-25T15:12:48;8.25;;;6.13;;
34711;SDS011;20941;42.408;25.634;2023-03-25T15:16:16;8.13;;;5.80;;
34711;SDS011;20941;42.408;25.634;2023-03-25T15:18:10;9.10;;;5.60;;
34711;SDS011;20941;42.408;25.634;2023-03-25T15:20:36;9.38;;;6.85;;
34711;SDS011;20941;42.408;25.634;2023-03-25T15:25:42;9.73;;;7.07;;
34711;SDS011;20941;42.408;25.634;2023-03-25T15:28:19;9.07;;;6.70;;
34711;SDS011;20941;42.408;25.634;2023-03-25T15:36:29;9.38;;;5.55;;
34711;SDS011;20941;42.408;25.634;2023-03-25T15:51:41;13.63;;;6.50;;
34711;SDS011;20941;42.408;25.634;2023-03-25T15:56:51;14.23;;;6.32;;
34711;SDS011;20941;42.408;25.634;2023-03-25T15:59:29;9.65;;;6.10;;
34711;SDS011;20941;42.408;25.634;2023-03-25T16:01:58;8.68;;;5.97;;
34711;SDS011;20941;42.408;25.634;2023-03-25T16:06:58;13.52;;;6.15;;
34711;SDS011;20941;42.408;25.634;2023-03-25T16:09:26;10.25;;;5.80;;
34711;SDS011;20941;42.408;25.634;2023-03-25T16:11:57;13.45;;;6.60;;
34711;SDS011;20941;42.408;25.634;2023-03-25T16:14:22;10.15;;;6.68;;
34711;SDS011;20941;42.408;25.634;2023-03-25T16:16:51;12.95;;;6.10;;
34711;SDS011;20941;42.408;25.634;2023-03-25T16:19:19;12.68;;;6.85;;
34711;SDS011;20941;42.408;25.634;2023-03-25T16:21:49;17.90;;;11.27;;
34711;SDS011;20941;42.408;25.634;2023-03-25T16:24:15;16.23;;;9.68;;
34711;SDS011;20941;42.408;25.634;2023-03-25T16:26:45;13.68;;;8.35;;
34711;SDS011;20941;42.408;25.634;2023-03-25T16:29:16;14.73;;;8.45;;
34711;SDS011;20941;42.408;25.634;2023-03-25T16:31:49;14.48;;;10.00;;
34711;SDS011;20941;42.408;25.634;2023-03-25T16:34:14;25.65;;;18.45;;
34711;SDS011;20941;42.408;25.634;2023-03-25T16:36:44;22.00;;;10.43;;
34711;SDS011;20941;42.408;25.634;2023-03-25T16:39:12;18.35;;;12.30;;
34711;SDS011;20941;42.408;25.634;2023-03-25T16:41:37;31.00;;;13.98;;
34711;SDS011;20941;42.408;25.634;2023-03-25T16:44:03;17.52;;;12.18;;
34711;SDS011;20941;42.408;25.634;2023-03-25T16:46:28;12.63;;;8.93;;
34711;SDS011;20941;42.408;25.634;2023-03-25T16:48:54;12.95;;;8.77;;
34711;SDS011;20941;42.408;25.634;2023-03-25T16:51:27;15.82;;;7.88;;
34711;SDS011;20941;42.408;25.634;2023-03-25T16:53:53;16.30;;;8.07;;
34711;SDS011;20941;42.408;25.634;2023-03-25T16:56:29;14.10;;;7.70;;
34711;SDS011;20941;42.408;25.634;2023-03-25T17:01:30;18.08;;;10.77;;
34711;SDS011;20941;42.408;25.634;2023-03-25T17:04:15;35.08;;;16.98;;
34711;SDS011;20941;42.408;25.634;2023-03-25T17:06:47;18.67;;;8.90;;
34711;SDS011;20941;42.408;25.634;2023-03-25T17:09:16;11.82;;;7.63;;
34711;SDS011;20941;42.408;25.634;2023-03-25T17:11:43;17.17;;;7.57;;
34711;SDS011;20941;42.408;25.634;2023-03-25T17:14:19;26.17;;;10.02;;
34711;SDS011;20941;42.408;25.634;2023-03-25T17:16:46;15.85;;;6.53;;
34711;SDS011;20941;42.408;25.634;2023-03-25T17:19:12;13.55;;;6.15;;
34711;SDS011;20941;42.408;25.634;2023-03-25T17:21:38;10.20;;;5.65;;